createdAt,value
2023-04-12T00:00:41.072Z,3.47
2023-04-12T00:03:11.054Z,4.10
2023-04-12T00:05:40.650Z,3.50
2023-04-12T00:08:10.846Z,3.47
2023-04-12T00:10:41.989Z,3.10
2023-04-12T00:13:11.838Z,3.50
2023-04-12T00:15:41.415Z,2.55
2023-04-12T00:18:10.947Z,3.25
2023-04-12T00:20:40.730Z,2.58
2023-04-12T00:23:12.820Z,3.17
2023-04-12T00:25:43.732Z,2.85
2023-04-12T00:28:13.424Z,2.30
2023-04-12T00:30:43.139Z,2.30
2023-04-12T00:33:12.794Z,2.20
2023-04-12T00:35:42.734Z,2.15
2023-04-12T00:38:12.370Z,1.75
2023-04-12T00:40:45.241Z,2.33
2023-04-12T00:43:19.617Z,1.75
2023-04-12T00:45:49.617Z,2.13
2023-04-12T00:48:19.353Z,2.10
2023-04-12T00:50:49.087Z,2.20
2023-04-12T00:53:20.933Z,2.63
2023-04-12T00:55:53.074Z,2.15
2023-04-12T00:58:25.725Z,1.90
2023-04-12T01:00:57.307Z,1.92
2023-04-12T01:03:31.073Z,1.65
2023-04-12T01:06:22.302Z,1.90
2023-04-12T01:09:05.745Z,2.20
2023-04-12T01:11:45.354Z,1.80
2023-04-12T01:14:25.121Z,2.28
2023-04-12T01:17:02.621Z,2.55
2023-04-12T01:19:57.646Z,2.03
2023-04-12T01:23:14.541Z,2.60
2023-04-12T01:26:13.402Z,2.08
2023-04-12T01:28:46.775Z,1.95
2023-04-12T01:33:48.189Z,1.92
2023-04-12T01:36:24.389Z,2.45
2023-04-12T01:38:56.046Z,2.75
2023-04-12T01:41:25.697Z,2.47
2023-04-12T01:43:57.213Z,2.42
2023-04-12T01:46:27.148Z,2.80
2023-04-12T01:48:57.748Z,2.35
2023-04-12T01:51:42.543Z,2.63
2023-04-12T01:54:20.476Z,2.00
2023-04-12T01:56:58.836Z,2.28
2023-04-12T01:59:37.589Z,2.00
2023-04-12T02:02:08.028Z,2.42
2023-04-12T02:04:38.608Z,2.10
2023-04-12T02:07:09.519Z,2.05
2023-04-12T02:09:39.959Z,2.15
